»·PEaware :: AAL2207 KEWR-KJFK

AAL2207 :: KEWR-KJFK

FLIGHT INFORMATION

Flight Status: Arrived
Operator:
American Airlines
More flights by this operator :: More flights under this callsign
Pilot: Kevin M. (7)
Aircraft: BOEING 737-800
(B738)
More flights by this aircraft type
Origin: KEWR Newark Intl
United States
Destination: KJFK Kennedy Intl
United States
More flights between these airports :: More routes between these airports
Route: EWR4 BREZY V39 CMK V419 JUDDS NELIE MAD V1 DPK
File this flight plan on PilotEdge
Remarks:
Altitude:
(Current/Filed)
11,000ft
Speed:
(Current/Filed)
468kts
Departed: 07-Dec-22 12:36 PM
Arrived: 07-Dec-22 01:14 PM
Distance/Time
Traveled:
18nm/0:38
Distance/Time
To Go:
Arrived

Flight Plot

Page will automatically refresh every two minutes.

Flight plan parsing failed; only flown route is shown


Map Options




Map Legend


Flown Route
Filed Route
Departure Airport
Arrival Airport
Navaid (VOR, NDB)
Fix

Horizontal Profiles

Position Reports

Time Latitude Longitude Heading Altitude Ground
Speed
07-Dec-22 12:12 40.689384 -74.175266 24 16ft 0kts
07-Dec-22 12:13 40.689384 -74.175266 24 16ft 0kts
07-Dec-22 12:14 40.689384 -74.175266 24 16ft 0kts
07-Dec-22 12:15 40.689384 -74.175266 24 16ft 0kts
07-Dec-22 12:16 40.689384 -74.175266 24 16ft 0kts
07-Dec-22 12:17 40.689384 -74.175266 24 16ft 0kts
07-Dec-22 12:18 40.689384 -74.175266 24 16ft 0kts
07-Dec-22 12:19 40.689384 -74.175266 24 16ft 0kts
07-Dec-22 12:20 40.689384 -74.175266 24 16ft 0kts
07-Dec-22 12:21 40.689105 -74.175433 24 16ft 2kts
07-Dec-22 12:22 40.688744 -74.175853 120 16ft 0kts
07-Dec-22 12:24 40.688776 -74.175923 116 16ft 0kts
07-Dec-22 12:25 40.688776 -74.175923 116 16ft 0kts
07-Dec-22 12:26 40.688776 -74.175923 116 16ft 0kts
07-Dec-22 12:27 40.688755 -74.175867 116 16ft 3kts
07-Dec-22 12:28 40.688641 -74.175556 114 16ft 2kts
07-Dec-22 12:29 40.688459 -74.175184 132 16ft 0kts
07-Dec-22 12:30 40.686443 -74.173997 203 16ft 18kts
07-Dec-22 12:31 40.681933 -74.176977 204 16ft 19kts
07-Dec-22 12:32 40.677893 -74.179478 207 16ft 18kts
07-Dec-22 12:33 40.676144 -74.180459 174 16ft 0kts
07-Dec-22 12:34 40.676144 -74.180459 174 16ft 0kts
07-Dec-22 12:35 40.675797 -74.179212 34 16ft 8kts
07-Dec-22 12:36 40.692744 -74.168454 22 365ft 190kts
07-Dec-22 12:37 40.746582 -74.111071 37 3020ft 290kts
07-Dec-22 12:38 40.815698 -74.125773 297 7780ft 276kts
07-Dec-22 12:39 40.878536 -74.182370 358 10994ft 347kts
07-Dec-22 12:40 40.982275 -74.165841 5 11000ft 384kts
07-Dec-22 12:41 41.068224 -74.085241 58 11006ft 410kts
07-Dec-22 12:42 41.122823 -73.959935 60 10846ft 396kts
07-Dec-22 12:43 41.176547 -73.831843 60 11005ft 395kts
07-Dec-22 12:44 41.228936 -73.705454 61 11001ft 384kts
07-Dec-22 12:44 41.271878 -73.601907 58 10999ft 384kts
07-Dec-22 12:46 41.346022 -73.493569 44 11000ft 384kts
07-Dec-22 12:47 41.421451 -73.392715 44 11000ft 384kts
07-Dec-22 12:48 41.497190 -73.291124 45 11000ft 384kts
07-Dec-22 12:48 41.560332 -73.207083 44 10999ft 384kts
07-Dec-22 12:49 41.636207 -73.106218 45 11000ft 384kts
07-Dec-22 12:51 41.723778 -72.986882 45 11000ft 384kts
07-Dec-22 12:51 41.767458 -72.886856 85 11003ft 385kts
07-Dec-22 12:52 41.717032 -72.771181 151 11000ft 385kts
07-Dec-22 12:53 41.614221 -72.735001 172 10999ft 384kts
07-Dec-22 12:55 41.489764 -72.716353 173 11000ft 384kts
07-Dec-22 12:55 41.401197 -72.704119 173 11000ft 384kts
07-Dec-22 12:56 41.296472 -72.716469 210 11000ft 384kts
07-Dec-22 12:57 41.218572 -72.805061 221 9993ft 331kts
07-Dec-22 12:58 41.156188 -72.878700 221 10001ft 288kts
07-Dec-22 12:59 41.095709 -72.949424 221 10000ft 289kts
07-Dec-22 13:00 41.036020 -73.020678 222 10000ft 289kts
07-Dec-22 13:01 40.975741 -73.091086 221 9326ft 285kts
07-Dec-22 13:02 40.916276 -73.159514 220 8123ft 281kts
07-Dec-22 13:03 40.857859 -73.226949 221 6793ft 275kts
07-Dec-22 13:04 40.801444 -73.293628 231 5999ft 272kts
07-Dec-22 13:05 40.795693 -73.389980 277 4785ft 268kts
07-Dec-22 13:06 40.804371 -73.485523 277 3109ft 248kts
07-Dec-22 13:07 40.810998 -73.562091 266 2991ft 188kts
07-Dec-22 13:08 40.776135 -73.611098 222 2726ft 186kts
07-Dec-22 13:09 40.738543 -73.654802 219 2101ft 185kts
07-Dec-22 13:10 40.698455 -73.699159 219 1933ft 187kts
07-Dec-22 13:11 40.663835 -73.739621 214 819ft 144kts
07-Dec-22 13:12 40.635031 -73.762831 209 16ft 54kts
07-Dec-22 13:13 40.634132 -73.771036 300 14ft 29kts
07-Dec-22 13:14 40.636118 -73.775414 300 16ft 0kts
07-Dec-22 13:15 40.637241 -73.776708 354 16ft 11kts
07-Dec-22 13:16 40.638865 -73.777191 342 16ft 0kts
07-Dec-22 13:17 40.638933 -73.777218 342 16ft 2kts

Navigation Log

Ident Type
Flight plan parsing failed, navigation log unavailable